Domov               UVHVVR             MKGP            O straneh              
ZDRAVSTVENO VARSTVO RASTLIN
  MREŽA AGROMET. POSTAJ
 ► PROGNOSTIČNA OBVESTILA
AGROMETEOROLOŠKI PODATKI -
ARSO
OBVLADOVANJE TVEGANJ ZARADI
NEUGODNIH VREMENSKIH RAZMER
  ► NARAVNE NESREČE
  ► SUŠA/MOČA
  ► NAMAKANJE
  ► ŽLED (gozdarstvo)
KARTOGRAFSKI PRIKAZI
SPLETNE POVEZAVE
PROJEKTI IN PUBLIKACIJE

AGROMETEOROLOŠKA MREŽA: VREMENSKE POSTAJE IN FENOLOŠKA OPAZOVANJA

Pregled podatkov za lokacijo Slovenske Konjice, meteorološka postaja 37885

Pregled senzorjev na lokaciji

ID Ime Zadnja
vrednost
Datum
zadnje
spremembe
Tip
senzorja
4060 Temperatura 2 m ( °C) 21,68 °C 19.10.2017 14:59 50YA
4061 Relativna vlaga 2 m (% RH) 43,76 % RH 19.10.2017 15:00 50YA
4062 Padavine 0.2 mm (mm) 0 mm 19.10.2017 15:00 Rain-O-Matic
4063 Omočenost lista (U) 0 U 19.10.2017 15:00 A730WET

Pregled podatkov zadnjih 24 ur

Zap.
št.
Datum in čas Slovenske Konjice
Omočenost
lista
Padavine
0.2
mm
Relativna
vlaga
2
m
Temperatura
2
m
0 19.10.2017 14:00 0 0 43,76 21,68
1 19.10.2017 13:30 0 0 43,91 21,56
2 19.10.2017 13:00 0 0 42,69 21,86
3 19.10.2017 12:30 0 0 40,66 21,88
4 19.10.2017 12:00 0 0 40,63 22,1
5 19.10.2017 11:30 0 0 40,76 21,44
6 19.10.2017 11:00 0 0 44,86 20,71
7 19.10.2017 10:30 0 0 49,74 19,54
8 19.10.2017 10:00 0 0 51,28 18,46
9 19.10.2017 09:30 0 0 52,11 17,22
10 19.10.2017 09:00 0 0 54,8 16,46
11 19.10.2017 08:30 0 0 58,14 15,02
12 19.10.2017 08:00 0 0 63,37 13,43
13 19.10.2017 07:30 0 0 71,11 10,99
14 19.10.2017 07:00 1 0 78,27 8,6
15 19.10.2017 06:30 1 0 79,98 7,86
16 19.10.2017 06:00 0 0 71,14 9,6
17 19.10.2017 05:30 0 0 69,28 10,06
18 19.10.2017 05:00 0 0 76,9 8,69
19 19.10.2017 04:30 0 0 76,65 8,96
20 19.10.2017 04:00 1 0 76,61 9,3
21 19.10.2017 03:30 1 0 80,51 8,77
22 19.10.2017 03:00 1 0 80,95 8,79
23 19.10.2017 02:30 0 0 77,97 9,13
24 19.10.2017 02:00 0 0 74,11 9,84
25 19.10.2017 01:30 0 0 73,72 10,13
26 19.10.2017 01:00 0 0 72,94 10,7
27 19.10.2017 00:30 0 0 65,93 12,55
28 19.10.2017 00:00 0 0 55,02 15,16
29 18.10.2017 23:30 0 0 57,61 14,82
30 18.10.2017 23:00 0 0 60,56 14,55
31 18.10.2017 22:30 0 0 57,75 15,73
32 18.10.2017 22:00 0 0 58,75 15,6
33 18.10.2017 21:30 0 0 57,63 16,09
34 18.10.2017 21:00 0 0 59,58 16
35 18.10.2017 20:30 0 0 63,47 14,85
36 18.10.2017 20:00 0 0 57,58 16,14
37 18.10.2017 19:30 0 0 59,27 15,12
38 18.10.2017 19:00 0 0 66,5 12,99
39 18.10.2017 18:30 0 0 63,86 13,5
40 18.10.2017 18:00 0 0 62,22 13,8
41 18.10.2017 17:30 0 0 58,27 14,82
42 18.10.2017 17:00 0 0 57,48 15,48
43 18.10.2017 16:30 0 0 54,55 16,61
© 2011 Ministrstvo za kmetijstvo, gozdarstvo in prehrano. Vse pravice pridržane.